createdAt,value
2019-03-05T00:01:52.529Z,149343.55
2019-03-05T00:04:23.111Z,149334.69
2019-03-05T00:06:53.672Z,149329.64
2019-03-05T00:09:24.159Z,149327.08
2019-03-05T00:11:54.748Z,149316.95
2019-03-05T00:14:25.257Z,149314.39
2019-03-05T00:16:56.305Z,149320.73
2019-03-05T00:19:26.777Z,149314.39
2019-03-05T00:21:57.247Z,149320.73
2019-03-05T00:25:02.453Z,149314.39
2019-03-05T00:27:38.349Z,149319.45
2019-03-05T00:30:58.515Z,149323.30
2019-03-05T00:34:30.233Z,149328.34
2019-03-05T00:37:13.695Z,149323.30
2019-03-05T00:40:25.657Z,149320.73
2019-03-05T00:43:50.260Z,149322.02
2019-03-05T00:47:13.096Z,149325.80
2019-03-05T00:51:01.975Z,149311.87
2019-03-05T00:54:23.926Z,149308.05
2019-03-05T00:57:45.535Z,149306.81
2019-03-05T01:00:58.053Z,149313.12
2019-03-05T01:04:16.192Z,149329.64
2019-03-05T01:06:46.706Z,149330.86
2019-03-05T01:09:21.089Z,149323.30
2019-03-05T01:11:51.954Z,149338.48
2019-03-05T01:14:24.530Z,149341.03
2019-03-05T01:16:55.101Z,149339.77
2019-03-05T01:19:25.623Z,149333.42
2019-03-05T01:21:56.240Z,149322.02
2019-03-05T01:24:26.748Z,149324.56
2019-03-05T01:26:57.229Z,149310.61
2019-03-05T01:29:27.837Z,149301.70
2019-03-05T01:32:18.334Z,149300.47
2019-03-05T01:35:04.222Z,149284.00
2019-03-05T01:37:35.674Z,149277.67
2019-03-05T01:40:28.979Z,149273.83
2019-03-05T01:42:59.521Z,149253.58
2019-03-05T01:45:30.194Z,149234.56
2019-03-05T01:48:00.691Z,149223.16
2019-03-05T01:50:31.448Z,149216.81
2019-03-05T01:53:02.208Z,149204.13
2019-03-05T01:55:32.754Z,149180.09
2019-03-05T01:58:03.573Z,149152.23
2019-03-05T02:00:34.890Z,149137.00
2019-03-05T02:03:05.541Z,149124.33
2019-03-05T02:05:36.012Z,149114.20
2019-03-05T02:08:06.610Z,149096.47
2019-03-05T02:10:37.209Z,149101.53
2019-03-05T02:13:07.699Z,149099.03
2019-03-05T02:15:38.218Z,149091.41
2019-03-05T02:18:09.023Z,149092.69
2019-03-05T02:20:39.542Z,149101.53
2019-03-05T02:24:03.413Z,149093.97
2019-03-05T02:27:41.318Z,149093.97
2019-03-05T02:30:57.942Z,149091.41
2019-03-05T02:34:38.429Z,149078.73
2019-03-05T02:37:53.649Z,149080.02
2019-03-05T02:40:49.199Z,149078.73
2019-03-05T02:44:13.374Z,149072.41
2019-03-05T02:47:21.205Z,149058.50
2019-03-05T02:50:47.361Z,149066.11
2019-03-05T02:54:16.135Z,149073.67
2019-03-05T02:57:01.378Z,149072.41
2019-03-05T02:59:32.181Z,149088.91
2019-03-05T03:02:10.286Z,149096.47
2019-03-05T03:04:43.329Z,149099.03
2019-03-05T03:07:13.936Z,149102.81
2019-03-05T03:10:17.169Z,149114.20
2019-03-05T03:12:47.721Z,149121.83
2019-03-05T03:15:20.285Z,149130.66
2019-03-05T03:17:51.741Z,149126.88
2019-03-05T03:20:23.516Z,149121.83
2019-03-05T03:22:53.975Z,149130.66
2019-03-05T03:25:25.404Z,149131.94
2019-03-05T03:27:55.883Z,149119.27
2019-03-05T03:30:28.460Z,149111.70
2019-03-05T03:32:59.046Z,149111.70
2019-03-05T03:35:29.541Z,149101.53
2019-03-05T03:38:00.088Z,149093.97
2019-03-05T03:40:31.134Z,149077.50
2019-03-05T03:43:02.322Z,149064.83
2019-03-05T03:45:33.106Z,149066.11
2019-03-05T03:48:04.146Z,149059.78
2019-03-05T03:50:34.909Z,149066.11
2019-03-05T03:53:05.637Z,149050.87
2019-03-05T03:55:36.362Z,149053.44
2019-03-05T03:58:07.130Z,149045.81
2019-03-05T04:00:37.589Z,149055.94
2019-03-05T04:03:08.051Z,149045.81
2019-03-05T04:05:38.651Z,149050.87
2019-03-05T04:08:10.446Z,149048.37
2019-03-05T04:10:41.113Z,149048.37
2019-03-05T04:13:11.623Z,149036.98
2019-03-05T04:15:42.135Z,149026.81
2019-03-05T04:18:12.622Z,149020.47
2019-03-05T04:20:49.574Z,149006.58
2019-03-05T04:23:20.043Z,148988.84
2019-03-05T04:25:50.523Z,148990.13
2019-03-05T04:28:21.086Z,148987.56
2019-03-05T04:30:51.884Z,148981.23
2019-03-05T04:33:22.362Z,148983.80
2019-03-05T04:35:53.075Z,148987.56
2019-03-05T04:38:23.650Z,148981.23
2019-03-05T04:40:54.223Z,148983.80
2019-03-05T04:43:24.716Z,148985.06
2019-03-05T04:46:12.601Z,148987.56
2019-03-05T04:48:44.732Z,149004.03
2019-03-05T04:51:22.320Z,149023.03
2019-03-05T04:53:53.089Z,149040.77
2019-03-05T04:56:23.545Z,149064.83
2019-03-05T04:58:54.001Z,149087.63
2019-03-05T05:01:24.752Z,149102.81
2019-03-05T05:03:55.218Z,149101.53
2019-03-05T05:06:25.689Z,149119.27
2019-03-05T05:08:56.431Z,149126.88
2019-03-05T05:11:26.903Z,149137.00
2019-03-05T05:13:57.384Z,149135.72
2019-03-05T05:16:28.254Z,149149.69
2019-03-05T05:18:58.902Z,149150.97
2019-03-05T05:21:29.413Z,149154.75
2019-03-05T05:24:00.041Z,149161.08
2019-03-05T05:26:30.548Z,149161.08
2019-03-05T05:29:01.127Z,149166.14
2019-03-05T05:31:31.658Z,149175.03
2019-03-05T05:34:02.370Z,149186.44
2019-03-05T05:36:32.929Z,149177.55
2019-03-05T05:39:04.414Z,149166.14
2019-03-05T05:41:35.136Z,149166.14
2019-03-05T05:44:05.601Z,149157.30
2019-03-05T05:46:36.100Z,149145.91
2019-03-05T05:49:06.559Z,149130.66
2019-03-05T05:51:37.022Z,149111.70
2019-03-05T05:54:07.567Z,149101.53
2019-03-05T05:56:38.028Z,149090.12
2019-03-05T05:59:08.496Z,149076.22
2019-03-05T06:01:39.483Z,149066.11
2019-03-05T06:04:09.961Z,149061.00
2019-03-05T06:06:40.478Z,149043.31
2019-03-05T06:09:11.413Z,149040.77
2019-03-05T06:11:41.865Z,149033.16
2019-03-05T06:14:12.642Z,149026.81
2019-03-05T06:16:43.188Z,149028.09
2019-03-05T06:19:13.667Z,149017.97
2019-03-05T06:21:44.122Z,149015.42
2019-03-05T06:24:14.638Z,149012.91
2019-03-05T06:26:45.251Z,149005.30
2019-03-05T06:29:15.712Z,148990.13
2019-03-05T06:31:46.225Z,148991.41
2019-03-05T06:34:16.684Z,148980.00
2019-03-05T06:36:57.783Z,148972.39
2019-03-05T06:39:28.273Z,148964.78
2019-03-05T06:41:59.007Z,148962.28
2019-03-05T06:44:29.517Z,148967.34
2019-03-05T06:46:59.986Z,148969.84
2019-03-05T06:49:30.459Z,148950.89
2019-03-05T06:52:01.217Z,148953.39
2019-03-05T06:54:31.735Z,148942.00
2019-03-05T06:57:02.415Z,148930.56
2019-03-05T06:59:32.947Z,148915.39
2019-03-05T07:02:03.824Z,148901.44
2019-03-05T07:04:34.658Z,148877.39
2019-03-05T07:07:05.184Z,148868.55
2019-03-05T07:10:22.853Z,148855.89
2019-03-05T07:13:21.091Z,148843.22
2019-03-05T07:16:52.562Z,148823.00
2019-03-05T07:19:59.865Z,148820.44
2019-03-05T07:22:55.361Z,148809.06
2019-03-05T07:25:25.879Z,148807.83
2019-03-05T07:28:00.227Z,148809.06
2019-03-05T07:30:31.012Z,148801.50
2019-03-05T07:33:02.060Z,148812.89
2019-03-05T07:35:34.522Z,148816.67
2019-03-05T07:38:05.597Z,148805.28
2019-03-05T07:40:36.082Z,148807.83
2019-03-05T07:43:06.908Z,148812.89
2019-03-05T07:45:37.658Z,148810.34
2019-03-05T07:48:08.441Z,148805.28
2019-03-05T07:50:39.061Z,148820.44
2019-03-05T07:53:09.609Z,148805.28
2019-03-05T07:55:40.183Z,148796.45
2019-03-05T07:58:10.985Z,148809.06
2019-03-05T08:00:41.705Z,148828.06
2019-03-05T08:03:12.162Z,148840.72
2019-03-05T08:05:42.704Z,148873.61
2019-03-05T08:09:07.414Z,148883.72
2019-03-05T08:11:38.055Z,148897.66
2019-03-05T08:14:36.387Z,148891.33
2019-03-05T08:17:06.991Z,148887.55
2019-03-05T08:19:37.459Z,148890.06
2019-03-05T08:22:09.733Z,148912.84
2019-03-05T08:24:40.249Z,148930.56
2019-03-05T08:27:10.967Z,148924.22
2019-03-05T08:29:41.976Z,148935.66
2019-03-05T08:32:12.577Z,148911.56
2019-03-05T08:34:43.044Z,148929.28
2019-03-05T08:37:13.703Z,148935.66
2019-03-05T08:39:44.198Z,148931.84
2019-03-05T08:42:14.708Z,148943.28
2019-03-05T08:44:50.375Z,148947.06
2019-03-05T08:47:20.904Z,148954.67
2019-03-05T08:49:51.411Z,149077.50
2019-03-05T08:52:21.911Z,149526.13
2019-03-05T08:54:52.397Z,149570.61
2019-03-05T08:57:22.935Z,149844.75
2019-03-05T08:59:53.517Z,149781.25
2019-03-05T09:02:24.055Z,149777.47
2019-03-05T09:04:55.248Z,149816.81
2019-03-05T09:07:26.195Z,149890.45
2019-03-05T09:09:56.669Z,149786.33
2019-03-05T09:12:27.623Z,149915.88
2019-03-05T09:14:58.205Z,149875.23
2019-03-05T09:17:28.825Z,149730.50
2019-03-05T09:19:59.309Z,149684.81
2019-03-05T09:22:29.834Z,149580.75
2019-03-05T09:25:00.364Z,149476.69
2019-03-05T09:27:31.147Z,149366.36
2019-03-05T09:30:02.093Z,149332.14
2019-03-05T09:32:32.581Z,149318.22
2019-03-05T09:35:03.058Z,149313.12
2019-03-05T09:37:33.781Z,149349.89
2019-03-05T09:40:05.489Z,149351.17
2019-03-05T09:42:39.910Z,149354.97
2019-03-05T09:45:09.412Z,149357.52
2019-03-05T09:47:39.929Z,149356.23
2019-03-05T09:50:13.969Z,149357.52
2019-03-05T09:52:54.408Z,149389.19
2019-03-05T09:55:19.175Z,149401.88
2019-03-05T09:57:53.567Z,149452.58
2019-03-05T10:00:25.038Z,149437.39
2019-03-05T10:02:55.830Z,149460.20
2019-03-05T10:05:26.802Z,149461.48
2019-03-05T10:07:57.526Z,149460.20
2019-03-05T10:10:29.198Z,149443.72
2019-03-05T10:13:04.340Z,149443.72
2019-03-05T10:15:33.056Z,149464.00
2019-03-05T10:18:12.356Z,149475.41
2019-03-05T10:20:35.919Z,149532.47
2019-03-05T10:23:07.000Z,149583.25
2019-03-05T10:25:37.558Z,149603.59
2019-03-05T10:28:08.390Z,149626.42
2019-03-05T10:30:40.472Z,149653.05
2019-03-05T10:33:11.465Z,149673.38
2019-03-05T10:35:42.269Z,149687.31
2019-03-05T10:38:13.650Z,149745.70
2019-03-05T10:40:44.498Z,149760.97
2019-03-05T10:43:15.955Z,149790.17
2019-03-05T10:45:47.759Z,149763.48
2019-03-05T10:48:19.759Z,149733.00
2019-03-05T10:50:50.481Z,149727.94
2019-03-05T10:53:21.036Z,149689.88
2019-03-05T10:55:51.545Z,149707.64
2019-03-05T10:58:32.761Z,149702.58
2019-03-05T11:00:54.468Z,149726.70
2019-03-05T11:03:27.356Z,149788.89
2019-03-05T11:05:58.061Z,149762.20
2019-03-05T11:08:28.983Z,149774.91
2019-03-05T11:11:12.592Z,149773.63
2019-03-05T11:13:34.240Z,149750.78
2019-03-05T11:16:04.995Z,149774.91
2019-03-05T11:18:36.755Z,149826.97
2019-03-05T11:21:08.740Z,149858.73
2019-03-05T11:23:41.216Z,149908.23
2019-03-05T11:26:12.277Z,149873.95
2019-03-05T11:28:43.162Z,149926.03
2019-03-05T11:31:13.643Z,149914.59
2019-03-05T11:33:44.141Z,149965.39
2019-03-05T11:36:14.720Z,150081.06
2019-03-05T11:38:46.120Z,150274.27
2019-03-05T11:41:16.837Z,150246.30
2019-03-05T11:43:48.176Z,150317.53
2019-03-05T11:46:19.287Z,150384.92
2019-03-05T11:48:50.298Z,150358.22
2019-03-05T11:51:21.043Z,150241.22
2019-03-05T11:53:51.840Z,150228.48
2019-03-05T11:56:22.655Z,150243.78
2019-03-05T11:58:54.056Z,150231.05
2019-03-05T12:01:32.062Z,150337.84
2019-03-05T12:04:02.892Z,150391.28
2019-03-05T12:06:34.049Z,150489.30
2019-03-05T12:09:06.099Z,150317.53
2019-03-05T12:11:36.826Z,150166.20
2019-03-05T12:14:07.675Z,150098.86
2019-03-05T12:16:38.527Z,149992.05
2019-03-05T12:19:09.108Z,150136.97
2019-03-05T12:21:39.864Z,150070.91
2019-03-05T12:24:10.499Z,149989.53
2019-03-05T12:26:41.168Z,150027.69
2019-03-05T12:29:11.894Z,150234.84
2019-03-05T12:31:42.526Z,150274.27
2019-03-05T12:34:13.346Z,150320.03
2019-03-05T12:36:44.135Z,150370.95
2019-03-05T12:39:16.826Z,150424.39
2019-03-05T12:41:47.553Z,150392.56
2019-03-05T12:44:18.221Z,150499.47
2019-03-05T12:46:49.130Z,150536.39
2019-03-05T12:49:20.106Z,150701.87
2019-03-05T12:51:50.799Z,150708.25
2019-03-05T12:54:21.885Z,150687.89
2019-03-05T12:56:53.682Z,150788.53
2019-03-05T12:59:24.273Z,150871.34
2019-03-05T13:01:54.909Z,150633.13
2019-03-05T13:04:25.575Z,150652.23
2019-03-05T13:06:56.206Z,150659.89
2019-03-05T13:09:26.874Z,150668.78
2019-03-05T13:11:57.600Z,150724.78
2019-03-05T13:14:28.189Z,150673.86
2019-03-05T13:16:58.858Z,150629.31
2019-03-05T13:19:29.936Z,150807.64
2019-03-05T13:22:00.639Z,150861.16
2019-03-05T13:24:31.269Z,150715.91
2019-03-05T13:27:02.278Z,150549.13
2019-03-05T13:29:32.878Z,150481.66
2019-03-05T13:32:03.539Z,150350.58
2019-03-05T13:34:34.181Z,150517.28
2019-03-05T13:37:05.503Z,150597.47
2019-03-05T13:39:36.425Z,150647.14
2019-03-05T13:42:07.941Z,150710.81
2019-03-05T13:44:38.844Z,150735.02
2019-03-05T13:47:13.330Z,150661.13
2019-03-05T13:50:19.045Z,150635.69
2019-03-05T13:53:32.170Z,150681.52
2019-03-05T13:56:42.405Z,150699.34
2019-03-05T13:59:50.750Z,150847.13
2019-03-05T14:02:26.154Z,150926.11
2019-03-05T14:05:33.510Z,150870.06
2019-03-05T14:08:45.014Z,150735.02
2019-03-05T14:11:15.983Z,150629.31
2019-03-05T14:13:46.926Z,150560.58
2019-03-05T14:16:19.442Z,150653.52
2019-03-05T14:18:50.011Z,150722.27
2019-03-05T14:21:20.799Z,150653.52
2019-03-05T14:23:51.334Z,150692.98
2019-03-05T14:26:21.892Z,150639.48
2019-03-05T14:28:52.401Z,150541.47
2019-03-05T14:31:23.001Z,150551.66
2019-03-05T14:33:54.155Z,150449.86
2019-03-05T14:36:24.879Z,150407.86
2019-03-05T14:38:55.418Z,150481.66
2019-03-05T14:41:25.898Z,150558.02
2019-03-05T14:43:56.429Z,150547.84
2019-03-05T14:46:26.882Z,150607.69
2019-03-05T14:48:57.939Z,150594.94
2019-03-05T14:51:28.507Z,150555.50
2019-03-05T14:53:59.022Z,150460.03
2019-03-05T14:56:29.866Z,150414.23
2019-03-05T14:59:00.345Z,150342.98
2019-03-05T15:01:31.069Z,150312.44
2019-03-05T15:04:01.787Z,150314.95
2019-03-05T15:06:32.436Z,150379.84
2019-03-05T15:09:03.481Z,150432.05
2019-03-05T15:11:34.220Z,150513.48
2019-03-05T15:14:05.047Z,150574.56
2019-03-05T15:16:35.909Z,150586.02
2019-03-05T15:19:06.512Z,150556.73
2019-03-05T15:21:36.962Z,150467.69
2019-03-05T15:24:07.520Z,150465.11
2019-03-05T15:26:38.041Z,150465.11
2019-03-05T15:29:08.655Z,150439.69
2019-03-05T15:31:39.513Z,150350.58
2019-03-05T15:34:10.514Z,150336.61
2019-03-05T15:36:41.003Z,150298.44
2019-03-05T15:39:11.724Z,150264.09
2019-03-05T15:41:46.063Z,150236.13
2019-03-05T15:44:14.547Z,150210.69
2019-03-05T15:46:45.030Z,150232.34
2019-03-05T15:49:15.613Z,150217.05
2019-03-05T15:51:46.101Z,150210.69
2019-03-05T15:54:16.635Z,150190.38
2019-03-05T15:56:47.069Z,150190.38
2019-03-05T15:59:18.199Z,150191.66
2019-03-05T16:01:49.277Z,150187.80
2019-03-05T16:04:19.783Z,150173.84
2019-03-05T16:06:50.404Z,150177.64
2019-03-05T16:09:21.416Z,150187.80
2019-03-05T16:11:52.156Z,150186.58
2019-03-05T16:14:23.142Z,150185.30
2019-03-05T16:16:53.659Z,150190.38
2019-03-05T16:19:24.425Z,150152.25
2019-03-05T16:21:54.922Z,150164.92
2019-03-05T16:24:25.446Z,150157.33
2019-03-05T16:26:56.977Z,150147.12
2019-03-05T16:29:28.324Z,150152.25
2019-03-05T16:32:13.744Z,150145.89
2019-03-05T16:34:57.957Z,150123.02
2019-03-05T16:37:39.294Z,150116.66
2019-03-05T16:40:32.808Z,150083.63
2019-03-05T16:43:14.436Z,150065.83
2019-03-05T16:46:03.109Z,150042.97
2019-03-05T16:48:51.209Z,150021.33
2019-03-05T16:51:27.913Z,150004.77
2019-03-05T16:54:16.116Z,149989.53
2019-03-05T16:57:05.465Z,149974.31
2019-03-05T16:59:55.419Z,149964.11
2019-03-05T17:02:41.223Z,149938.73
2019-03-05T17:05:26.623Z,149931.09
2019-03-05T17:08:28.060Z,149926.03
2019-03-05T17:11:29.552Z,149926.03
2019-03-05T17:14:00.450Z,149912.03
2019-03-05T17:16:31.270Z,149890.45
2019-03-05T17:19:01.814Z,149867.59
2019-03-05T17:21:32.399Z,149849.81
2019-03-05T17:24:02.873Z,149844.75
2019-03-05T17:26:33.592Z,149816.81
2019-03-05T17:29:04.160Z,149816.81
2019-03-05T17:31:34.658Z,149813.02
2019-03-05T17:34:05.308Z,149801.59
2019-03-05T17:36:35.764Z,149807.91
2019-03-05T17:39:10.883Z,149778.70
2019-03-05T17:41:41.370Z,149763.48
2019-03-05T17:44:11.873Z,149764.75
2019-03-05T17:46:42.662Z,149757.12
2019-03-05T17:49:13.202Z,149741.91
2019-03-05T17:51:43.666Z,149752.06
2019-03-05T17:54:14.193Z,149736.84
2019-03-05T17:56:44.704Z,149722.86
2019-03-05T17:59:15.397Z,149711.44
2019-03-05T18:01:45.940Z,149705.09
2019-03-05T18:04:16.980Z,149696.22
2019-03-05T18:06:47.758Z,149689.88
2019-03-05T18:09:19.494Z,149700.02
2019-03-05T18:11:50.015Z,149687.31
2019-03-05T18:14:20.852Z,149679.73
2019-03-05T18:16:51.634Z,149674.66
2019-03-05T18:19:22.741Z,149673.38
2019-03-05T18:21:53.620Z,149658.13
2019-03-05T18:24:24.423Z,149655.61
2019-03-05T18:26:55.083Z,149663.23
2019-03-05T18:29:25.567Z,149637.84
2019-03-05T18:31:56.471Z,149632.78
2019-03-05T18:34:27.397Z,149631.48
2019-03-05T18:36:57.912Z,149626.42
2019-03-05T18:39:28.688Z,149626.42
2019-03-05T18:42:00.478Z,149623.86
2019-03-05T18:44:32.722Z,149613.72
2019-03-05T18:47:03.319Z,149613.72
2019-03-05T18:49:34.574Z,149612.44
2019-03-05T18:53:12.062Z,149607.38
2019-03-05T18:55:42.994Z,149604.86
2019-03-05T18:58:13.589Z,149597.23
2019-03-05T19:43:40.088Z,149480.47
2019-03-05T19:46:11.042Z,149467.83
2019-03-05T19:48:41.879Z,149462.72
2019-03-05T20:23:42.227Z,149433.59
2019-03-05T20:26:13.047Z,149433.59
2019-03-05T20:28:43.771Z,149438.66
2019-03-05T20:45:17.461Z,149425.97
2019-03-05T20:47:48.513Z,149428.48
2019-03-05T20:50:19.259Z,149428.48
2019-03-05T21:51:36.595Z,149273.83
2019-03-05T21:54:07.446Z,149294.13
2019-03-05T21:56:38.563Z,149296.64
2019-03-05T21:59:09.794Z,149287.80
2019-03-05T22:01:40.413Z,149263.70
2019-03-05T22:04:10.997Z,149286.52
2019-03-05T22:06:41.477Z,149294.13
2019-03-05T22:09:12.293Z,149278.91
2019-03-05T22:11:43.554Z,149277.67
2019-03-05T22:14:14.103Z,149277.67
2019-03-05T22:16:44.969Z,149263.70
2019-03-05T22:19:15.463Z,149280.17
2019-03-05T22:21:46.266Z,149261.19
2019-03-05T22:24:17.076Z,149284.00
2019-03-05T22:26:48.146Z,149291.58
2019-03-05T22:29:19.163Z,149286.52
2019-03-05T22:31:50.013Z,149300.47
2019-03-05T22:34:22.076Z,149314.39
2019-03-05T22:36:52.921Z,149338.48
2019-03-05T22:39:23.444Z,149330.86
2019-03-05T22:41:54.394Z,149344.83
2019-03-05T22:44:25.239Z,149354.97
2019-03-05T22:46:55.758Z,149320.73
2019-03-05T22:49:26.730Z,149318.22
2019-03-05T22:51:57.478Z,149309.33
2019-03-05T22:54:27.958Z,149324.56
2019-03-05T22:56:58.511Z,149311.87
2019-03-05T22:59:29.008Z,149325.80
2019-03-05T23:01:59.724Z,149314.39
2019-03-05T23:04:37.692Z,149304.27
2019-03-05T23:07:08.676Z,149327.08
2019-03-05T23:09:39.177Z,149328.34
2019-03-05T23:12:10.205Z,149324.56
2019-03-05T23:14:40.890Z,149327.08
2019-03-05T23:17:12.554Z,149302.98
2019-03-05T23:19:43.156Z,149309.33
2019-03-05T23:22:15.686Z,149330.86
2019-03-05T23:24:46.197Z,149329.64
2019-03-05T23:27:17.246Z,149339.77
2019-03-05T23:29:48.860Z,149324.56
2019-03-05T23:32:20.348Z,149324.56
2019-03-05T23:34:51.045Z,149319.45
2019-03-05T23:37:21.517Z,149327.08
2019-03-05T23:39:52.456Z,149323.30
2019-03-05T23:42:24.101Z,149327.08
2019-03-05T23:44:54.610Z,149333.42
2019-03-05T23:47:25.472Z,149329.64
2019-03-05T23:49:56.063Z,149330.86
2019-03-05T23:52:27.034Z,149309.33
2019-03-05T23:54:57.530Z,149322.02
2019-03-05T23:57:28.023Z,149314.39
2019-03-05T23:59:58.970Z,149324.56
